createdAt,value
2018-11-10T00:00:44.005Z,0
2018-11-10T00:01:44.256Z,0
2018-11-10T00:02:44.272Z,0
2018-11-10T00:03:44.228Z,0
2018-11-10T00:04:44.467Z,0
2018-11-10T00:05:44.454Z,0
2018-11-10T00:06:43.635Z,0
2018-11-10T00:07:44.218Z,0
2018-11-10T00:08:44.136Z,0
2018-11-10T00:09:43.849Z,0
2018-11-10T00:10:43.855Z,0
2018-11-10T00:11:43.827Z,0
2018-11-10T00:12:44.068Z,0
2018-11-10T00:13:44.055Z,0
2018-11-10T00:14:44.043Z,0
2018-11-10T00:15:44.282Z,0
2018-11-10T00:16:43.873Z,0
2018-11-10T00:17:44.301Z,0
2018-11-10T00:18:44.228Z,0
2018-11-10T00:19:43.948Z,0
2018-11-10T00:20:44.218Z,0
2018-11-10T00:21:43.650Z,0
2018-11-10T00:22:44.155Z,0
2018-11-10T00:23:43.884Z,0
2018-11-10T00:24:43.885Z,0
2018-11-10T00:25:43.852Z,0
2018-11-10T00:26:43.515Z,0
2018-11-10T00:27:44.086Z,0
2018-11-10T00:28:43.284Z,0
2018-11-10T00:29:44.046Z,0
2018-11-10T00:30:44.036Z,0
2018-11-10T00:31:43.488Z,0
2018-11-10T00:32:43.501Z,0
2018-11-10T00:33:43.734Z,0
2018-11-10T00:34:44.338Z,0
2018-11-10T00:35:43.696Z,0
2018-11-10T00:36:43.407Z,0
2018-11-10T00:37:43.648Z,0
2018-11-10T00:38:43.926Z,0
2018-11-10T00:39:43.890Z,0
2018-11-10T00:40:43.878Z,0
2018-11-10T00:41:43.843Z,0
2018-11-10T00:42:43.841Z,0
2018-11-10T00:43:43.819Z,0
2018-11-10T00:44:43.802Z,0
2018-11-10T00:45:43.255Z,0
2018-11-10T00:46:43.235Z,0
2018-11-10T00:47:43.779Z,0
2018-11-10T00:48:43.744Z,0
2018-11-10T00:49:43.194Z,0
2018-11-10T00:50:43.706Z,0
2018-11-10T00:51:43.681Z,0
2018-11-10T00:52:43.405Z,0
2018-11-10T00:53:43.423Z,0
2018-11-10T00:54:43.130Z,0
2018-11-10T00:55:43.090Z,0
2018-11-10T00:56:43.338Z,0
2018-11-10T00:57:43.580Z,0
2018-11-10T00:58:43.316Z,0
2018-11-10T00:59:43.021Z,0
2018-11-10T01:00:43.016Z,0
2018-11-10T01:01:43.262Z,0
2018-11-10T01:02:43.283Z,0
2018-11-10T01:03:43.214Z,0
2018-11-10T01:04:43.203Z,0
2018-11-10T01:05:43.000Z,0
2018-11-10T01:06:43.176Z,0
2018-11-10T01:07:43.167Z,0
2018-11-10T01:08:42.879Z,0
2018-11-10T01:09:42.868Z,0
2018-11-10T01:10:42.840Z,0
2018-11-10T01:11:43.361Z,0
2018-11-10T01:12:43.070Z,0
2018-11-10T01:13:43.392Z,0
2018-11-10T01:14:43.044Z,0
2018-11-10T01:15:43.299Z,0
2018-11-10T01:16:43.005Z,0
2018-11-10T01:17:42.729Z,0
2018-11-10T01:18:42.718Z,0
2018-11-10T01:19:42.963Z,0
2018-11-10T01:20:42.686Z,0
2018-11-10T01:21:42.929Z,0
2018-11-10T01:22:42.916Z,0
2018-11-10T01:23:42.900Z,0
2018-11-10T01:24:42.612Z,0
2018-11-10T01:25:42.337Z,0
2018-11-10T01:26:43.125Z,0
2018-11-10T01:27:42.978Z,0
2018-11-10T01:28:42.813Z,0
2018-11-10T01:29:43.068Z,0
2018-11-10T01:30:42.520Z,0
2018-11-10T01:31:43.031Z,0
2018-11-10T01:32:42.789Z,0
2018-11-10T01:33:42.472Z,0
2018-11-10T01:34:42.993Z,0
2018-11-10T01:35:43.007Z,0
2018-11-10T01:36:42.944Z,0
2018-11-10T01:37:42.687Z,0
2018-11-10T01:38:42.644Z,0
2018-11-10T01:39:42.638Z,0
2018-11-10T01:40:42.352Z,0
2018-11-10T01:41:42.887Z,0
2018-11-10T01:42:42.600Z,0
2018-11-10T01:43:42.579Z,0
2018-11-10T01:44:42.551Z,0
2018-11-10T01:45:42.286Z,0
2018-11-10T01:46:42.293Z,0
2018-11-10T01:47:42.254Z,0
2018-11-10T01:48:42.500Z,0
2018-11-10T01:49:42.737Z,0
2018-11-10T01:50:42.201Z,0
2018-11-10T01:51:42.444Z,0
2018-11-10T01:52:42.446Z,0
2018-11-10T01:53:42.146Z,0
2018-11-10T01:54:42.398Z,0
2018-11-10T01:55:42.373Z,0
2018-11-10T01:56:42.638Z,0
2018-11-10T01:57:42.616Z,0
2018-11-10T01:58:42.073Z,0
2018-11-10T01:59:42.339Z,0
2018-11-10T02:00:42.565Z,0
2018-11-10T02:01:42.292Z,0
2018-11-10T02:02:42.277Z,0
2018-11-10T02:03:42.281Z,0
2018-11-10T02:04:42.524Z,0
2018-11-10T02:05:42.250Z,0
2018-11-10T02:06:42.105Z,0
2018-11-10T02:07:42.181Z,0
2018-11-10T02:08:42.447Z,0
2018-11-10T02:09:42.440Z,0
2018-11-10T02:10:42.139Z,0
2018-11-10T02:11:42.400Z,0
2018-11-10T02:12:41.600Z,0
2018-11-10T02:13:42.365Z,0
2018-11-10T02:14:42.354Z,0
2018-11-10T02:15:42.093Z,0
2018-11-10T02:16:42.050Z,0
2018-11-10T02:17:42.305Z,0
2018-11-10T02:18:42.284Z,0
2018-11-10T02:19:42.270Z,0
2018-11-10T02:20:41.985Z,0
2018-11-10T02:21:41.959Z,0
2018-11-10T02:22:41.979Z,0
2018-11-10T02:23:41.679Z,0
2018-11-10T02:24:41.660Z,0
2018-11-10T02:25:42.162Z,0
2018-11-10T02:26:42.091Z,0
2018-11-10T02:27:41.879Z,0
2018-11-10T02:28:42.122Z,0
2018-11-10T02:29:41.846Z,0
2018-11-10T02:30:41.886Z,0
2018-11-10T02:31:41.558Z,0
2018-11-10T02:32:41.539Z,0
2018-11-10T02:33:41.791Z,0
2018-11-10T02:34:41.771Z,0
2018-11-10T02:35:42.020Z,0
2018-11-10T02:36:41.466Z,0
2018-11-10T02:37:41.717Z,0
2018-11-10T02:38:41.993Z,0
2018-11-10T02:39:41.970Z,0
2018-11-10T02:40:41.671Z,0
2018-11-10T02:41:41.918Z,0
2018-11-10T02:42:41.637Z,0
2018-11-10T02:43:41.117Z,0
2018-11-10T02:44:41.610Z,0
2018-11-10T02:45:41.601Z,0
2018-11-10T02:46:41.310Z,0
2018-11-10T02:47:41.571Z,0
2018-11-10T02:48:41.283Z,0
2018-11-10T02:49:41.522Z,0
2018-11-10T02:50:41.253Z,0
2018-11-10T02:51:41.759Z,0
2018-11-10T02:52:41.291Z,0
2018-11-10T02:53:41.465Z,0
2018-11-10T02:54:41.720Z,0
2018-11-10T02:55:41.690Z,0
2018-11-10T02:56:41.683Z,0
2018-11-10T02:57:41.136Z,0
2018-11-10T02:58:41.389Z,0
2018-11-10T02:59:41.371Z,0
2018-11-10T03:00:41.360Z,0
2018-11-10T03:01:41.335Z,0
2018-11-10T03:02:41.325Z,0
2018-11-10T03:03:41.309Z,0
2018-11-10T03:04:40.760Z,0
2018-11-10T03:05:41.277Z,0
2018-11-10T03:06:41.526Z,0
2018-11-10T03:07:41.249Z,0
2018-11-10T03:08:41.489Z,0
2018-11-10T03:09:41.207Z,0
2018-11-10T03:10:41.785Z,0
2018-11-10T03:11:41.188Z,0
2018-11-10T03:12:41.449Z,0
2018-11-10T03:13:40.893Z,0
2018-11-10T03:14:41.131Z,0
2018-11-10T03:15:41.392Z,0
2018-11-10T03:16:40.835Z,0
2018-11-10T03:17:41.084Z,0
2018-11-10T03:18:40.806Z,0
2018-11-10T03:19:41.052Z,0
2018-11-10T03:20:41.039Z,0
2018-11-10T03:21:41.043Z,0
2018-11-10T03:22:40.741Z,0
2018-11-10T03:23:40.992Z,0
2018-11-10T03:24:40.995Z,0
2018-11-10T03:25:40.703Z,0
2018-11-10T03:26:40.942Z,0
2018-11-10T03:27:40.410Z,0
2018-11-10T03:28:40.922Z,0
2018-11-10T03:29:41.173Z,0
2018-11-10T03:30:40.638Z,0
2018-11-10T03:31:40.872Z,0
2018-11-10T03:32:41.140Z,0
2018-11-10T03:33:41.107Z,0
2018-11-10T03:34:41.088Z,0
2018-11-10T03:35:40.815Z,0
2018-11-10T03:36:40.536Z,0
2018-11-10T03:37:41.048Z,0
2018-11-10T03:38:40.501Z,0
2018-11-10T03:39:40.744Z,0
2018-11-10T03:40:40.204Z,0
2018-11-10T03:41:40.716Z,0
2018-11-10T03:42:40.707Z,0
2018-11-10T03:43:40.688Z,0
2018-11-10T03:44:40.405Z,0
2018-11-10T03:45:40.657Z,0
2018-11-10T03:46:40.392Z,0
2018-11-10T03:47:40.881Z,0
2018-11-10T03:48:40.734Z,0
2018-11-10T03:49:40.338Z,0
2018-11-10T03:50:40.306Z,0
2018-11-10T03:51:40.293Z,0
2018-11-10T03:52:40.544Z,0
2018-11-10T03:53:40.268Z,0
2018-11-10T03:54:40.510Z,0
2018-11-10T03:55:40.515Z,0
2018-11-10T03:56:40.480Z,0
2018-11-10T03:57:40.463Z,0
2018-11-10T03:58:40.456Z,0
2018-11-10T03:59:40.436Z,0
2018-11-10T04:00:40.683Z,0
2018-11-10T04:01:40.136Z,0
2018-11-10T04:02:40.391Z,0
2018-11-10T04:03:40.120Z,0
2018-11-10T04:04:40.099Z,0
2018-11-10T04:05:40.093Z,0
2018-11-10T04:06:40.352Z,0
2018-11-10T04:07:40.321Z,0
2018-11-10T04:08:40.299Z,0
2018-11-10T04:09:40.560Z,0
2018-11-10T04:10:40.267Z,0
2018-11-10T04:11:40.518Z,0
2018-11-10T04:12:40.505Z,0
2018-11-10T04:13:40.526Z,0
2018-11-10T04:14:40.474Z,0
2018-11-10T04:15:40.215Z,0
2018-11-10T04:16:39.945Z,0
2018-11-10T04:17:40.172Z,0
2018-11-10T04:18:39.882Z,0
2018-11-10T04:19:39.897Z,0
2018-11-10T04:20:39.865Z,0
2018-11-10T04:21:40.147Z,0
2018-11-10T04:22:40.095Z,0
2018-11-10T04:23:40.332Z,0
2018-11-10T04:24:39.791Z,0
2018-11-10T04:25:40.045Z,0
2018-11-10T04:26:39.963Z,0
2018-11-10T04:27:40.008Z,0
2018-11-10T04:28:39.732Z,0
2018-11-10T04:29:40.270Z,0
2018-11-10T04:30:39.702Z,0
2018-11-10T04:31:40.209Z,0
2018-11-10T04:32:40.198Z,0
2018-11-10T04:33:40.187Z,0
2018-11-10T04:34:39.656Z,0
2018-11-10T04:35:39.885Z,0
2018-11-10T04:36:39.605Z,0
2018-11-10T04:37:39.859Z,0
2018-11-10T04:38:39.841Z,0
2018-11-10T04:39:39.828Z,0
2018-11-10T04:40:39.816Z,0
2018-11-10T04:41:39.798Z,0
2018-11-10T04:42:40.058Z,0
2018-11-10T04:43:40.090Z,0
2018-11-10T04:44:39.761Z,0
2018-11-10T04:45:39.475Z,0
2018-11-10T04:46:39.995Z,0
2018-11-10T04:47:39.809Z,0
2018-11-10T04:48:39.166Z,0
2018-11-10T04:49:39.552Z,0
2018-11-10T04:50:39.400Z,0
2018-11-10T04:51:39.925Z,0
2018-11-10T04:52:39.649Z,0
2018-11-10T04:53:39.929Z,0
2018-11-10T04:54:39.599Z,0
2018-11-10T04:55:39.057Z,0
2018-11-10T04:56:39.593Z,0
2018-11-10T04:57:39.557Z,0
2018-11-10T04:58:39.619Z,0
2018-11-10T04:59:39.282Z,0
2018-11-10T05:00:39.251Z,0
2018-11-10T05:01:39.860Z,0
2018-11-10T05:02:39.480Z,0
2018-11-10T05:03:39.463Z,0
2018-11-10T05:04:39.714Z,0
2018-11-10T05:05:39.700Z,0
2018-11-10T05:06:39.424Z,0
2018-11-10T05:07:39.405Z,0
2018-11-10T05:08:38.860Z,0
2018-11-10T05:09:39.652Z,0
2018-11-10T05:10:39.100Z,0
2018-11-10T05:11:39.344Z,0
2018-11-10T05:12:39.331Z,0
2018-11-10T05:13:39.326Z,0
2018-11-10T05:14:39.343Z,0
2018-11-10T05:15:39.305Z,0
2018-11-10T05:16:39.271Z,0
2018-11-10T05:17:38.989Z,0
2018-11-10T05:18:38.991Z,0
2018-11-10T05:19:39.498Z,0
2018-11-10T05:20:39.215Z,0
2018-11-10T05:21:38.670Z,0
2018-11-10T05:22:39.442Z,0
2018-11-10T05:23:38.923Z,0
2018-11-10T05:24:39.425Z,0
2018-11-10T05:25:39.409Z,0
2018-11-10T05:26:38.860Z,0
2018-11-10T05:27:38.846Z,0
2018-11-10T05:28:38.768Z,0
2018-11-10T05:29:39.078Z,0
2018-11-10T05:30:39.331Z,0
2018-11-10T05:31:39.053Z,0
2018-11-10T05:32:39.527Z,0
2018-11-10T05:33:38.492Z,0
2018-11-10T05:34:39.290Z,0
2018-11-10T05:35:39.318Z,0
2018-11-10T05:36:38.721Z,0
2018-11-10T05:37:39.231Z,0
2018-11-10T05:38:38.952Z,0
2018-11-10T05:39:39.046Z,0
2018-11-10T05:40:38.929Z,0
2018-11-10T05:41:38.371Z,0
2018-11-10T05:42:38.893Z,0
2018-11-10T05:43:38.865Z,0
2018-11-10T05:44:38.858Z,0
2018-11-10T05:45:38.316Z,0
2018-11-10T05:46:39.087Z,0
2018-11-10T05:47:38.818Z,0
2018-11-10T05:48:38.532Z,0
2018-11-10T05:49:38.777Z,0
2018-11-10T05:50:38.773Z,0
2018-11-10T05:51:39.016Z,0
2018-11-10T05:52:38.998Z,0
2018-11-10T05:53:38.458Z,0
2018-11-10T05:54:38.441Z,0
2018-11-10T05:55:38.715Z,0
2018-11-10T05:56:38.963Z,0
2018-11-10T05:57:39.033Z,0
2018-11-10T05:58:38.657Z,0
2018-11-10T05:59:38.393Z,0
2018-11-10T06:00:38.383Z,0
2018-11-10T06:01:38.392Z,0
2018-11-10T06:02:38.614Z,0
2018-11-10T06:03:38.680Z,0
2018-11-10T06:04:53.794Z,0
2018-11-10T06:05:38.538Z,0
2018-11-10T06:06:38.552Z,0
2018-11-10T06:07:38.514Z,0
2018-11-10T06:08:38.047Z,0
2018-11-10T06:09:38.352Z,0
2018-11-10T06:10:38.474Z,0
2018-11-10T06:11:38.274Z,0
2018-11-10T06:12:38.254Z,0
2018-11-10T06:13:38.591Z,0
2018-11-10T06:14:38.534Z,0
2018-11-10T06:15:38.404Z,4
2018-11-10T06:16:38.117Z,4
2018-11-10T06:17:38.108Z,0
2018-11-10T06:18:37.847Z,0
2018-11-10T06:19:38.073Z,0
2018-11-10T06:20:38.067Z,4
2018-11-10T06:21:38.308Z,4
2018-11-10T06:22:38.293Z,4
2018-11-10T06:23:38.594Z,4
2018-11-10T06:24:37.999Z,8
2018-11-10T06:25:38.299Z,4
2018-11-10T06:26:38.904Z,8
2018-11-10T06:27:37.684Z,8
2018-11-10T06:28:38.538Z,8
2018-11-10T06:29:37.944Z,12
2018-11-10T06:30:38.214Z,12
2018-11-10T06:31:38.163Z,12
2018-11-10T06:32:38.435Z,12
2018-11-10T06:33:37.604Z,16
2018-11-10T06:34:38.397Z,20
2018-11-10T06:35:38.111Z,20
2018-11-10T06:36:38.089Z,20
2018-11-10T06:37:37.809Z,24
2018-11-10T06:38:38.068Z,24
2018-11-10T06:39:38.061Z,28
2018-11-10T06:40:37.499Z,36
2018-11-10T06:41:38.639Z,36
2018-11-10T06:42:38.272Z,36
2018-11-10T06:43:37.718Z,36
2018-11-10T06:44:37.968Z,44
2018-11-10T06:45:38.225Z,44
2018-11-10T06:46:37.944Z,48
2018-11-10T06:47:37.972Z,48
2018-11-10T06:48:38.182Z,56
2018-11-10T06:49:38.163Z,64
2018-11-10T06:50:38.146Z,68
2018-11-10T06:51:37.605Z,68
2018-11-10T06:52:37.904Z,72
2018-11-10T06:53:37.590Z,68
2018-11-10T06:54:38.091Z,72
2018-11-10T06:55:37.812Z,76
2018-11-10T06:56:37.792Z,80
2018-11-10T06:57:38.041Z,84
2018-11-10T06:58:37.509Z,88
2018-11-10T06:59:38.018Z,88
2018-11-10T07:00:37.486Z,96
2018-11-10T07:01:37.194Z,104
2018-11-10T07:02:37.973Z,120
2018-11-10T07:03:37.591Z,128
2018-11-10T07:04:37.944Z,148
2018-11-10T07:05:37.927Z,168
2018-11-10T07:06:37.379Z,196
2018-11-10T07:07:37.667Z,216
2018-11-10T07:08:37.612Z,236
2018-11-10T07:09:37.499Z,260
2018-11-10T07:10:37.055Z,280
2018-11-10T07:11:37.306Z,292
2018-11-10T07:12:37.555Z,296
2018-11-10T07:13:37.537Z,292
2018-11-10T07:14:37.513Z,280
2018-11-10T07:15:37.504Z,268
2018-11-10T07:16:37.764Z,256
2018-11-10T07:17:37.401Z,248
2018-11-10T07:18:37.719Z,232
2018-11-10T07:19:37.182Z,216
2018-11-10T07:20:37.719Z,204
2018-11-10T07:21:37.152Z,200
2018-11-10T07:22:37.133Z,208
2018-11-10T07:23:37.647Z,220
2018-11-10T07:24:37.368Z,232
2018-11-10T07:25:37.086Z,232
2018-11-10T07:26:37.640Z,248
2018-11-10T07:27:37.582Z,264
2018-11-10T07:28:37.314Z,276
2018-11-10T07:29:37.030Z,284
2018-11-10T07:30:37.296Z,300
2018-11-10T07:31:37.517Z,316
2018-11-10T07:32:37.551Z,328
2018-11-10T07:33:37.233Z,344
2018-11-10T07:34:37.475Z,344
2018-11-10T07:35:37.192Z,348
2018-11-10T07:36:37.196Z,348
2018-11-10T07:37:37.098Z,328
2018-11-10T07:38:37.156Z,320
2018-11-10T07:39:37.134Z,316
2018-11-10T07:40:37.384Z,320
2018-11-10T07:41:36.584Z,336
2018-11-10T07:42:36.819Z,364
2018-11-10T07:43:37.067Z,380
2018-11-10T07:44:37.060Z,400
2018-11-10T07:45:37.350Z,440
2018-11-10T07:46:37.040Z,496
2018-11-10T07:47:36.747Z,576
2018-11-10T07:48:37.269Z,672
2018-11-10T07:49:37.187Z,760
2018-11-10T07:50:36.963Z,824
2018-11-10T07:51:36.960Z,868
2018-11-10T07:52:36.920Z,940
2018-11-10T07:53:36.905Z,1000
2018-11-10T07:54:36.642Z,1084
2018-11-10T07:55:37.109Z,1180
2018-11-10T07:56:37.152Z,1232
2018-11-10T07:57:36.850Z,1300
2018-11-10T07:58:36.837Z,1424
2018-11-10T07:59:36.827Z,1552
2018-11-10T08:00:36.885Z,1668
2018-11-10T08:01:36.535Z,1784
2018-11-10T08:02:36.541Z,1948
2018-11-10T08:03:37.058Z,2156
2018-11-10T08:04:36.840Z,2356
2018-11-10T08:05:36.991Z,2516
2018-11-10T08:06:36.482Z,2612
2018-11-10T08:07:36.444Z,2740
2018-11-10T08:08:36.690Z,3020
2018-11-10T08:09:36.921Z,3248
2018-11-10T08:10:36.654Z,3384
2018-11-10T08:11:36.381Z,3376
2018-11-10T08:12:36.641Z,3324
2018-11-10T08:13:36.588Z,3332
2018-11-10T08:14:36.582Z,3104
2018-11-10T08:15:36.879Z,2760
2018-11-10T08:16:36.564Z,2224
2018-11-10T08:17:36.560Z,1760
2018-11-10T08:18:36.597Z,1668
2018-11-10T08:19:36.778Z,1480
2018-11-10T08:20:36.240Z,1408
2018-11-10T08:21:36.471Z,1460
2018-11-10T08:22:36.459Z,1560
2018-11-10T08:23:36.474Z,1616
2018-11-10T08:24:36.416Z,1596
2018-11-10T08:25:36.417Z,1696
2018-11-10T08:26:36.130Z,1796
2018-11-10T08:27:36.905Z,1736
2018-11-10T08:28:36.365Z,1524
2018-11-10T08:29:36.664Z,1388
2018-11-10T08:30:36.332Z,1280
2018-11-10T08:31:36.586Z,1188
2018-11-10T08:32:36.567Z,1180
2018-11-10T08:33:36.328Z,1088
2018-11-10T08:34:36.608Z,972
2018-11-10T08:35:36.382Z,860
2018-11-10T08:36:36.012Z,792
2018-11-10T08:37:36.027Z,848
2018-11-10T08:38:36.368Z,840
2018-11-10T08:39:36.433Z,812
2018-11-10T08:40:36.170Z,800
2018-11-10T08:41:35.931Z,796
2018-11-10T08:42:36.446Z,792
2018-11-10T08:43:36.418Z,784
2018-11-10T08:44:36.132Z,772
2018-11-10T08:45:35.849Z,740
2018-11-10T08:46:36.090Z,708
2018-11-10T08:47:36.334Z,680
2018-11-10T08:48:36.257Z,672
2018-11-10T08:49:36.039Z,656
2018-11-10T08:50:36.041Z,696
2018-11-10T08:51:36.308Z,756
2018-11-10T08:52:35.754Z,832
2018-11-10T08:53:35.711Z,916
2018-11-10T08:54:35.699Z,980
2018-11-10T08:55:35.681Z,1028
2018-11-10T08:56:35.718Z,1008
2018-11-10T08:57:36.107Z,1020
2018-11-10T08:58:35.688Z,1100
2018-11-10T08:59:36.196Z,1252
2018-11-10T09:00:35.728Z,1424
2018-11-10T09:01:35.867Z,1604
2018-11-10T09:02:35.939Z,1756
2018-11-10T09:03:35.611Z,1804
2018-11-10T09:04:35.982Z,1748
2018-11-10T09:05:35.843Z,1700
2018-11-10T09:06:36.115Z,1616
2018-11-10T09:07:36.079Z,1688
2018-11-10T09:08:35.499Z,1856
2018-11-10T09:09:36.043Z,1928
2018-11-10T09:10:35.739Z,1960
2018-11-10T09:11:35.979Z,1952
2018-11-10T09:12:35.704Z,1976
2018-11-10T09:13:35.679Z,2028
2018-11-10T09:14:35.409Z,2036
2018-11-10T09:15:35.661Z,2140
2018-11-10T09:16:35.636Z,2108
2018-11-10T09:17:35.759Z,2000
2018-11-10T09:18:35.606Z,1864
2018-11-10T09:19:35.853Z,1968
2018-11-10T09:20:35.345Z,2076
2018-11-10T09:21:36.305Z,1912
2018-11-10T09:22:35.281Z,1988
2018-11-10T09:23:35.525Z,2484
2018-11-10T09:24:35.710Z,2552
2018-11-10T09:25:35.519Z,2568
2018-11-10T09:26:35.758Z,2516
2018-11-10T09:27:35.501Z,2692
2018-11-10T09:28:34.948Z,2912
2018-11-10T09:29:35.763Z,3036
2018-11-10T09:30:34.889Z,3160
2018-11-10T09:31:35.760Z,2844
2018-11-10T09:32:35.492Z,2356
2018-11-10T09:33:35.368Z,1928
2018-11-10T09:34:35.159Z,1816
2018-11-10T09:35:35.139Z,1772
2018-11-10T09:36:35.678Z,1672
2018-11-10T09:37:35.040Z,1492
2018-11-10T09:38:35.042Z,1556
2018-11-10T09:39:35.556Z,1532
2018-11-10T09:40:35.539Z,1648
2018-11-10T09:41:34.992Z,1808
2018-11-10T09:42:36.091Z,2060
2018-11-10T09:43:34.972Z,2224
2018-11-10T09:44:35.213Z,2336
2018-11-10T09:45:35.198Z,2296
2018-11-10T09:46:34.924Z,2012
2018-11-10T09:47:35.175Z,1704
2018-11-10T09:48:35.141Z,1508
2018-11-10T09:49:35.429Z,1492
2018-11-10T09:50:35.243Z,1488
2018-11-10T09:51:35.171Z,1436
2018-11-10T09:52:35.204Z,1428
2018-11-10T09:53:34.830Z,1564
2018-11-10T09:54:35.374Z,1736
2018-11-10T09:55:34.788Z,1676
2018-11-10T09:56:35.070Z,1568
2018-11-10T09:57:35.333Z,1704
2018-11-10T09:58:35.006Z,1796
2018-11-10T09:59:34.982Z,1796
2018-11-10T10:00:34.916Z,1788
2018-11-10T10:01:35.747Z,1852
2018-11-10T10:02:37.974Z,2036
2018-11-10T10:03:34.934Z,2236
2018-11-10T10:04:34.907Z,2404
2018-11-10T10:05:35.164Z,2560
2018-11-10T10:06:34.617Z,2872
2018-11-10T10:07:34.870Z,2920
2018-11-10T10:08:34.895Z,2848
2018-11-10T10:09:35.131Z,2856
2018-11-10T10:10:34.579Z,2876
2018-11-10T10:11:34.866Z,3092
2018-11-10T10:12:34.304Z,3236
2018-11-10T10:13:34.798Z,3260
2018-11-10T10:14:34.517Z,3304
2018-11-10T10:15:34.750Z,3340
2018-11-10T10:16:35.246Z,3564
2018-11-10T10:17:34.469Z,3804
2018-11-10T10:18:34.705Z,3676
2018-11-10T10:19:34.689Z,3536
2018-11-10T10:20:34.681Z,3528
2018-11-10T10:21:34.660Z,3652
2018-11-10T10:22:34.703Z,3664
2018-11-10T10:23:34.630Z,3664
2018-11-10T10:24:34.357Z,3632
2018-11-10T10:25:34.871Z,3412
2018-11-10T10:26:34.856Z,3376
2018-11-10T10:27:34.780Z,3308
2018-11-10T10:28:34.925Z,3344
2018-11-10T10:29:34.288Z,3308
2018-11-10T10:30:34.367Z,3296
2018-11-10T10:31:34.554Z,3268
2018-11-10T10:32:34.243Z,3260
2018-11-10T10:33:34.775Z,3360
2018-11-10T10:34:35.279Z,3476
2018-11-10T10:35:34.937Z,3404
2018-11-10T10:36:34.717Z,3356
2018-11-10T10:37:34.695Z,3352
2018-11-10T10:38:34.709Z,3436
2018-11-10T10:39:34.434Z,3524
2018-11-10T10:40:34.667Z,3588
2018-11-10T10:41:34.649Z,3704
2018-11-10T10:42:34.636Z,3916
2018-11-10T10:43:34.080Z,4064
2018-11-10T10:44:34.327Z,4152
2018-11-10T10:45:34.314Z,4224
2018-11-10T10:46:34.601Z,4324
2018-11-10T10:47:34.289Z,4348
2018-11-10T10:48:34.873Z,4424
2018-11-10T10:49:34.004Z,4556
2018-11-10T10:50:34.268Z,5040
2018-11-10T10:51:34.220Z,5768
2018-11-10T10:52:34.533Z,5892
2018-11-10T10:53:34.212Z,6288
2018-11-10T10:54:34.191Z,6508
2018-11-10T10:55:34.443Z,6260
2018-11-10T10:56:34.140Z,5700
2018-11-10T10:57:34.408Z,5256
2018-11-10T10:58:34.404Z,4940
2018-11-10T10:59:33.859Z,4800
2018-11-10T11:00:34.121Z,4716
2018-11-10T11:01:34.083Z,4484
2018-11-10T11:02:33.552Z,4304
2018-11-10T11:03:34.356Z,3912
2018-11-10T11:04:33.791Z,3784
2018-11-10T11:05:33.773Z,3596
2018-11-10T11:06:34.016Z,3556
2018-11-10T11:07:33.999Z,3692
2018-11-10T11:08:33.995Z,4088
2018-11-10T11:09:34.695Z,4352
2018-11-10T11:10:33.966Z,4116
2018-11-10T11:11:33.423Z,3804
2018-11-10T11:12:33.927Z,3512
2018-11-10T11:13:33.917Z,3196
2018-11-10T11:14:34.215Z,2664
2018-11-10T11:15:35.191Z,2380
2018-11-10T11:16:33.880Z,2380
2018-11-10T11:17:33.869Z,2560
2018-11-10T11:18:34.160Z,2648
2018-11-10T11:19:33.606Z,2656
2018-11-10T11:20:33.859Z,2500
2018-11-10T11:21:33.277Z,2532
2018-11-10T11:22:33.793Z,2712
2018-11-10T11:23:33.531Z,3000
2018-11-10T11:24:33.234Z,3108
2018-11-10T11:25:33.753Z,3024
2018-11-10T11:26:34.008Z,3036
2018-11-10T11:27:33.733Z,3064
2018-11-10T11:28:33.707Z,2992
2018-11-10T11:29:34.175Z,2900
2018-11-10T11:30:33.149Z,2896
2018-11-10T11:31:33.927Z,3012
2018-11-10T11:32:33.923Z,3152
2018-11-10T11:33:33.899Z,3212
2018-11-10T11:34:33.637Z,3220
2018-11-10T11:35:33.807Z,3080
2018-11-10T11:36:33.912Z,2956
2018-11-10T11:37:33.848Z,3132
2018-11-10T11:38:33.879Z,3232
2018-11-10T11:39:33.290Z,3072
2018-11-10T11:40:33.007Z,2864
2018-11-10T11:41:34.021Z,2744
2018-11-10T11:42:33.252Z,2680
2018-11-10T11:43:33.501Z,2620
2018-11-10T11:44:33.496Z,2636
2018-11-10T11:45:33.727Z,2740
2018-11-10T11:46:33.789Z,2876
2018-11-10T11:47:33.487Z,3008
2018-11-10T11:48:33.158Z,3180
2018-11-10T11:49:33.427Z,3372
2018-11-10T11:50:33.427Z,3508
2018-11-10T11:51:33.123Z,3644
2018-11-10T11:52:33.113Z,3828
2018-11-10T11:53:33.630Z,4096
2018-11-10T11:54:33.413Z,4424
2018-11-10T11:55:33.585Z,4900
2018-11-10T11:56:33.665Z,5644
2018-11-10T11:57:33.577Z,6616
2018-11-10T11:58:33.280Z,7488
2018-11-10T11:59:33.535Z,8332
2018-11-10T12:00:33.265Z,8904
2018-11-10T12:01:33.496Z,9348
2018-11-10T12:02:33.486Z,9456
2018-11-10T12:03:33.268Z,8948
2018-11-10T12:04:33.055Z,8248
2018-11-10T12:05:32.655Z,7824
2018-11-10T12:06:33.174Z,7332
2018-11-10T12:07:33.427Z,6724
2018-11-10T12:08:32.884Z,6200
2018-11-10T12:09:33.132Z,5772
2018-11-10T12:10:33.122Z,5592
2018-11-10T12:11:33.118Z,5432
2018-11-10T12:12:33.097Z,5340
2018-11-10T12:13:33.357Z,5184
2018-11-10T12:14:33.070Z,5132
2018-11-10T12:15:33.893Z,5120
2018-11-10T12:16:34.827Z,5100
2018-11-10T12:17:32.767Z,5056
2018-11-10T12:18:32.753Z,4972
2018-11-10T12:19:32.463Z,4840
2018-11-10T12:20:32.990Z,4704
2018-11-10T12:21:33.237Z,4620
2018-11-10T12:22:32.697Z,4564
2018-11-10T12:23:32.940Z,4568
2018-11-10T12:24:33.193Z,4560
2018-11-10T12:25:32.915Z,4488
2018-11-10T12:26:32.966Z,4376
2018-11-10T12:27:32.829Z,4232
2018-11-10T12:28:32.922Z,4088
2018-11-10T12:29:32.867Z,3896
2018-11-10T12:30:32.604Z,3736
2018-11-10T12:31:32.671Z,3616
2018-11-10T12:32:32.616Z,3480
2018-11-10T12:33:33.075Z,3352
2018-11-10T12:34:33.105Z,3192
2018-11-10T12:35:32.509Z,3040
2018-11-10T12:36:32.773Z,2924
2018-11-10T12:37:32.529Z,2848
2018-11-10T12:38:32.783Z,2816
2018-11-10T12:39:32.732Z,2772
2018-11-10T12:40:32.713Z,2732
2018-11-10T12:41:32.973Z,2696
2018-11-10T12:42:32.950Z,2664
2018-11-10T12:43:32.419Z,2600
2018-11-10T12:44:32.919Z,2496
2018-11-10T12:45:32.364Z,2376
2018-11-10T12:46:32.751Z,2244
2018-11-10T12:47:32.758Z,2140
2018-11-10T12:48:32.616Z,2080
2018-11-10T12:49:32.323Z,2080
2018-11-10T12:50:32.598Z,2120
2018-11-10T12:51:32.554Z,2156
2018-11-10T12:52:32.557Z,2192
2018-11-10T12:53:32.533Z,2236
2018-11-10T12:54:32.266Z,2332
2018-11-10T12:55:32.437Z,2332
2018-11-10T12:56:32.510Z,2308
2018-11-10T12:57:31.945Z,2236
2018-11-10T12:58:32.465Z,2176
2018-11-10T12:59:32.461Z,2128
2018-11-10T13:00:32.698Z,2092
2018-11-10T13:01:32.420Z,2072
2018-11-10T13:02:31.877Z,2068
2018-11-10T13:03:32.152Z,2148
2018-11-10T13:04:32.403Z,2172
2018-11-10T13:05:32.625Z,2176
2018-11-10T13:06:32.612Z,2160
2018-11-10T13:07:32.331Z,2156
2018-11-10T13:08:32.057Z,2112
2018-11-10T13:09:32.366Z,2028
2018-11-10T13:10:32.363Z,2008
2018-11-10T13:11:32.890Z,1976
2018-11-10T13:12:32.258Z,1976
2018-11-10T13:13:32.452Z,1972
2018-11-10T13:14:32.866Z,1948
2018-11-10T13:15:32.224Z,1896
2018-11-10T13:16:33.007Z,1856
2018-11-10T13:17:32.586Z,1836
2018-11-10T13:18:31.918Z,1812
2018-11-10T13:19:31.914Z,1836
2018-11-10T13:20:32.496Z,1896
2018-11-10T13:21:32.462Z,1920
2018-11-10T13:22:32.124Z,1924
2018-11-10T13:23:31.842Z,1912
2018-11-10T13:24:32.096Z,1908
2018-11-10T13:25:32.103Z,1916
2018-11-10T13:26:31.809Z,1856
2018-11-10T13:27:32.049Z,1784
2018-11-10T13:28:32.304Z,1728
2018-11-10T13:29:32.023Z,1688
2018-11-10T13:30:32.019Z,1668
2018-11-10T13:31:33.128Z,1644
2018-11-10T13:32:31.994Z,1640
2018-11-10T13:33:31.961Z,1660
2018-11-10T13:34:32.211Z,1720
2018-11-10T13:35:31.933Z,1796
2018-11-10T13:36:31.933Z,1892
2018-11-10T13:37:31.647Z,2016
2018-11-10T13:38:31.365Z,2156
2018-11-10T13:39:31.890Z,2304
2018-11-10T13:40:31.597Z,2436
2018-11-10T13:41:31.630Z,2744
2018-11-10T13:42:32.000Z,2928
2018-11-10T13:43:31.900Z,3108
2018-11-10T13:44:31.301Z,3320
2018-11-10T13:45:32.059Z,3532
2018-11-10T13:46:31.786Z,3740
2018-11-10T13:47:31.759Z,3924
2018-11-10T13:48:31.765Z,4068
2018-11-10T13:49:31.475Z,4140
2018-11-10T13:50:31.715Z,4176
2018-11-10T13:51:32.869Z,4076
2018-11-10T13:52:34.320Z,3932
2018-11-10T13:53:31.414Z,3828
2018-11-10T13:54:31.393Z,3664
2018-11-10T13:55:31.376Z,3428
2018-11-10T13:56:31.901Z,3180
2018-11-10T13:57:31.379Z,2936
2018-11-10T13:58:31.639Z,2752
2018-11-10T13:59:32.055Z,2656
2018-11-10T14:00:31.305Z,2544
2018-11-10T14:01:31.296Z,2396